sensor_id;sensor_type;location;lat;lon;timestamp;P1;durP1;ratioP1;P2;durP2;ratioP2
64595;SDS011;51003;51.628;6.670;2023-05-29T00:02:07;7.57;;;4.10;;
64595;SDS011;51003;51.628;6.670;2023-05-29T00:04:32;8.70;;;3.67;;
64595;SDS011;51003;51.628;6.670;2023-05-29T00:06:58;5.70;;;3.93;;
64595;SDS011;51003;51.628;6.670;2023-05-29T00:09:23;4.03;;;3.63;;
64595;SDS011;51003;51.628;6.670;2023-05-29T00:11:49;6.23;;;4.13;;
64595;SDS011;51003;51.628;6.670;2023-05-29T00:14:17;4.40;;;3.63;;
64595;SDS011;51003;51.628;6.670;2023-05-29T00:16:45;9.47;;;4.90;;
64595;SDS011;51003;51.628;6.670;2023-05-29T00:19:12;5.63;;;3.90;;
64595;SDS011;51003;51.628;6.670;2023-05-29T00:21:38;7.83;;;3.90;;
64595;SDS011;51003;51.628;6.670;2023-05-29T00:24:04;6.13;;;4.20;;
64595;SDS011;51003;51.628;6.670;2023-05-29T00:26:29;5.20;;;4.10;;
64595;SDS011;51003;51.628;6.670;2023-05-29T00:28:55;6.27;;;3.60;;
64595;SDS011;51003;51.628;6.670;2023-05-29T00:31:20;10.33;;;3.50;;
64595;SDS011;51003;51.628;6.670;2023-05-29T00:33:46;6.80;;;4.03;;
64595;SDS011;51003;51.628;6.670;2023-05-29T00:36:11;7.70;;;3.87;;
64595;SDS011;51003;51.628;6.670;2023-05-29T00:38:37;6.40;;;3.63;;
64595;SDS011;51003;51.628;6.670;2023-05-29T00:41:02;6.03;;;3.90;;
64595;SDS011;51003;51.628;6.670;2023-05-29T00:43:27;8.13;;;3.70;;
64595;SDS011;51003;51.628;6.670;2023-05-29T00:45:53;3.73;;;3.43;;
64595;SDS011;51003;51.628;6.670;2023-05-29T00:51:45;6.80;;;4.00;;
64595;SDS011;51003;51.628;6.670;2023-05-29T00:54:11;5.80;;;4.20;;
64595;SDS011;51003;51.628;6.670;2023-05-29T00:56:41;5.03;;;3.63;;
64595;SDS011;51003;51.628;6.670;2023-05-29T01:02:01;7.70;;;3.50;;
64595;SDS011;51003;51.628;6.670;2023-05-29T01:04:27;10.53;;;3.80;;
64595;SDS011;51003;51.628;6.670;2023-05-29T01:06:53;7.93;;;3.00;;
64595;SDS011;51003;51.628;6.670;2023-05-29T01:09:18;9.23;;;3.13;;
64595;SDS011;51003;51.628;6.670;2023-05-29T01:23:06;8.83;;;3.00;;
64595;SDS011;51003;51.628;6.670;2023-05-29T01:28:41;10.83;;;2.40;;
64595;SDS011;51003;51.628;6.670;2023-05-29T01:31:07;8.60;;;3.10;;
64595;SDS011;51003;51.628;6.670;2023-05-29T01:33:38;4.97;;;2.63;;
64595;SDS011;51003;51.628;6.670;2023-05-29T01:36:05;11.60;;;2.40;;
64595;SDS011;51003;51.628;6.670;2023-05-29T01:38:33;4.27;;;2.40;;
64595;SDS011;51003;51.628;6.670;2023-05-29T01:40:58;9.77;;;2.87;;
64595;SDS011;51003;51.628;6.670;2023-05-29T01:43:24;6.03;;;2.77;;
64595;SDS011;51003;51.628;6.670;2023-05-29T01:45:51;7.23;;;3.00;;
64595;SDS011;51003;51.628;6.670;2023-05-29T01:48:17;2.87;;;2.23;;
64595;SDS011;51003;51.628;6.670;2023-05-29T01:50:43;5.20;;;2.93;;
64595;SDS011;51003;51.628;6.670;2023-05-29T01:53:09;7.13;;;2.30;;
64595;SDS011;51003;51.628;6.670;2023-05-29T01:55:34;8.50;;;2.40;;
64595;SDS011;51003;51.628;6.670;2023-05-29T01:58:00;14.80;;;2.97;;
64595;SDS011;51003;51.628;6.670;2023-05-29T02:00:26;6.63;;;2.67;;
64595;SDS011;51003;51.628;6.670;2023-05-29T02:02:51;7.00;;;2.50;;
64595;SDS011;51003;51.628;6.670;2023-05-29T02:05:17;7.10;;;2.80;;
64595;SDS011;51003;51.628;6.670;2023-05-29T02:07:42;9.80;;;2.43;;
64595;SDS011;51003;51.628;6.670;2023-05-29T02:10:08;7.10;;;2.40;;
64595;SDS011;51003;51.628;6.670;2023-05-29T02:12:36;6.90;;;2.77;;
64595;SDS011;51003;51.628;6.670;2023-05-29T02:15:02;10.43;;;2.87;;
64595;SDS011;51003;51.628;6.670;2023-05-29T02:17:27;9.67;;;2.70;;
64595;SDS011;51003;51.628;6.670;2023-05-29T02:19:53;8.00;;;2.50;;
64595;SDS011;51003;51.628;6.670;2023-05-29T02:22:19;6.87;;;2.20;;
64595;SDS011;51003;51.628;6.670;2023-05-29T02:24:44;10.27;;;2.33;;
64595;SDS011;51003;51.628;6.670;2023-05-29T02:27:10;7.27;;;2.60;;
64595;SDS011;51003;51.628;6.670;2023-05-29T02:29:35;9.63;;;2.53;;
64595;SDS011;51003;51.628;6.670;2023-05-29T02:32:01;8.50;;;2.43;;
64595;SDS011;51003;51.628;6.670;2023-05-29T02:34:26;10.23;;;2.63;;
64595;SDS011;51003;51.628;6.670;2023-05-29T02:36:51;7.70;;;2.60;;
64595;SDS011;51003;51.628;6.670;2023-05-29T02:39:17;6.27;;;2.67;;
64595;SDS011;51003;51.628;6.670;2023-05-29T02:41:43;8.27;;;2.40;;
64595;SDS011;51003;51.628;6.670;2023-05-29T02:44:08;6.77;;;2.33;;
64595;SDS011;51003;51.628;6.670;2023-05-29T02:46:37;10.10;;;2.43;;
64595;SDS011;51003;51.628;6.670;2023-05-29T02:49:02;13.90;;;3.10;;
64595;SDS011;51003;51.628;6.670;2023-05-29T02:51:28;12.60;;;2.57;;
64595;SDS011;51003;51.628;6.670;2023-05-29T02:53:55;8.80;;;2.40;;
64595;SDS011;51003;51.628;6.670;2023-05-29T02:56:20;11.83;;;2.47;;
64595;SDS011;51003;51.628;6.670;2023-05-29T02:58:49;10.10;;;2.47;;
64595;SDS011;51003;51.628;6.670;2023-05-29T03:01:15;8.20;;;2.60;;
64595;SDS011;51003;51.628;6.670;2023-05-29T03:03:40;9.20;;;2.33;;
64595;SDS011;51003;51.628;6.670;2023-05-29T03:06:06;8.00;;;2.40;;
64595;SDS011;51003;51.628;6.670;2023-05-29T03:08:31;5.60;;;2.07;;
64595;SDS011;51003;51.628;6.670;2023-05-29T03:10:58;6.10;;;2.30;;
64595;SDS011;51003;51.628;6.670;2023-05-29T03:13:24;9.93;;;2.80;;
64595;SDS011;51003;51.628;6.670;2023-05-29T03:15:49;7.67;;;2.23;;
64595;SDS011;51003;51.628;6.670;2023-05-29T03:18:16;7.17;;;2.60;;
64595;SDS011;51003;51.628;6.670;2023-05-29T03:20:41;9.63;;;2.53;;
64595;SDS011;51003;51.628;6.670;2023-05-29T03:23:06;9.17;;;2.20;;
64595;SDS011;51003;51.628;6.670;2023-05-29T03:25:32;10.23;;;2.77;;
64595;SDS011;51003;51.628;6.670;2023-05-29T03:27:57;11.70;;;2.37;;
64595;SDS011;51003;51.628;6.670;2023-05-29T03:30:23;13.53;;;2.37;;
64595;SDS011;51003;51.628;6.670;2023-05-29T03:32:49;8.50;;;2.83;;
64595;SDS011;51003;51.628;6.670;2023-05-29T03:35:14;12.53;;;3.10;;
64595;SDS011;51003;51.628;6.670;2023-05-29T03:37:40;10.47;;;2.87;;
64595;SDS011;51003;51.628;6.670;2023-05-29T03:40:06;8.60;;;2.30;;
64595;SDS011;51003;51.628;6.670;2023-05-29T03:42:34;10.93;;;2.70;;
64595;SDS011;51003;51.628;6.670;2023-05-29T03:44:59;14.20;;;3.00;;
64595;SDS011;51003;51.628;6.670;2023-05-29T03:47:25;13.60;;;2.80;;
64595;SDS011;51003;51.628;6.670;2023-05-29T03:49:51;7.83;;;2.80;;
64595;SDS011;51003;51.628;6.670;2023-05-29T03:52:17;15.03;;;2.77;;
64595;SDS011;51003;51.628;6.670;2023-05-29T03:54:42;13.30;;;2.93;;
64595;SDS011;51003;51.628;6.670;2023-05-29T03:57:09;6.43;;;2.40;;
64595;SDS011;51003;51.628;6.670;2023-05-29T03:59:35;8.47;;;2.80;;
64595;SDS011;51003;51.628;6.670;2023-05-29T04:02:14;15.43;;;2.87;;
64595;SDS011;51003;51.628;6.670;2023-05-29T04:04:48;13.30;;;2.73;;
64595;SDS011;51003;51.628;6.670;2023-05-29T04:07:15;11.47;;;2.50;;
64595;SDS011;51003;51.628;6.670;2023-05-29T04:09:42;7.80;;;2.63;;
64595;SDS011;51003;51.628;6.670;2023-05-29T04:12:08;5.73;;;2.33;;
64595;SDS011;51003;51.628;6.670;2023-05-29T04:14:33;12.60;;;2.63;;
64595;SDS011;51003;51.628;6.670;2023-05-29T04:16:59;9.40;;;2.77;;
64595;SDS011;51003;51.628;6.670;2023-05-29T04:19:24;6.00;;;2.30;;
64595;SDS011;51003;51.628;6.670;2023-05-29T04:21:51;7.43;;;2.00;;
64595;SDS011;51003;51.628;6.670;2023-05-29T04:27:53;7.77;;;2.67;;
64595;SDS011;51003;51.628;6.670;2023-05-29T04:36:26;11.63;;;2.67;;
64595;SDS011;51003;51.628;6.670;2023-05-29T04:38:53;12.80;;;2.30;;
64595;SDS011;51003;51.628;6.670;2023-05-29T04:41:19;8.83;;;2.80;;
64595;SDS011;51003;51.628;6.670;2023-05-29T04:43:48;14.53;;;3.10;;
64595;SDS011;51003;51.628;6.670;2023-05-29T04:46:14;8.83;;;2.70;;
64595;SDS011;51003;51.628;6.670;2023-05-29T04:48:40;9.70;;;2.80;;
64595;SDS011;51003;51.628;6.670;2023-05-29T04:51:06;9.50;;;2.80;;
64595;SDS011;51003;51.628;6.670;2023-05-29T04:53:31;13.70;;;2.30;;
64595;SDS011;51003;51.628;6.670;2023-05-29T04:55:57;9.87;;;3.20;;
64595;SDS011;51003;51.628;6.670;2023-05-29T04:58:25;11.73;;;3.50;;
64595;SDS011;51003;51.628;6.670;2023-05-29T05:00:50;16.13;;;3.17;;
64595;SDS011;51003;51.628;6.670;2023-05-29T05:03:16;11.77;;;2.70;;
64595;SDS011;51003;51.628;6.670;2023-05-29T05:05:42;8.47;;;2.90;;
64595;SDS011;51003;51.628;6.670;2023-05-29T05:08:08;12.20;;;2.50;;
64595;SDS011;51003;51.628;6.670;2023-05-29T05:10:36;14.63;;;3.10;;
64595;SDS011;51003;51.628;6.670;2023-05-29T05:13:02;11.70;;;2.50;;
64595;SDS011;51003;51.628;6.670;2023-05-29T05:15:27;8.10;;;2.40;;
64595;SDS011;51003;51.628;6.670;2023-05-29T05:17:53;10.40;;;2.60;;
64595;SDS011;51003;51.628;6.670;2023-05-29T05:20:18;9.37;;;3.27;;
64595;SDS011;51003;51.628;6.670;2023-05-29T05:22:45;8.90;;;2.50;;
64595;SDS011;51003;51.628;6.670;2023-05-29T05:25:10;11.13;;;2.53;;
64595;SDS011;51003;51.628;6.670;2023-05-29T05:27:36;10.10;;;2.90;;
64595;SDS011;51003;51.628;6.670;2023-05-29T05:30:03;8.47;;;2.30;;
64595;SDS011;51003;51.628;6.670;2023-05-29T05:32:28;7.57;;;2.47;;
64595;SDS011;51003;51.628;6.670;2023-05-29T05:40:27;7.20;;;2.30;;
64595;SDS011;51003;51.628;6.670;2023-05-29T05:42:53;8.23;;;2.77;;
64595;SDS011;51003;51.628;6.670;2023-05-29T05:45:19;9.93;;;2.80;;
64595;SDS011;51003;51.628;6.670;2023-05-29T05:47:44;10.47;;;3.13;;
64595;SDS011;51003;51.628;6.670;2023-05-29T05:50:10;10.80;;;2.50;;
64595;SDS011;51003;51.628;6.670;2023-05-29T05:52:36;11.57;;;2.43;;
64595;SDS011;51003;51.628;6.670;2023-05-29T05:55:01;10.60;;;3.17;;
64595;SDS011;51003;51.628;6.670;2023-05-29T05:57:28;7.03;;;2.07;;
64595;SDS011;51003;51.628;6.670;2023-05-29T05:59:53;12.27;;;2.83;;
64595;SDS011;51003;51.628;6.670;2023-05-29T06:02:19;8.07;;;2.87;;
64595;SDS011;51003;51.628;6.670;2023-05-29T06:04:44;11.03;;;3.40;;
64595;SDS011;51003;51.628;6.670;2023-05-29T06:07:10;18.73;;;2.87;;
64595;SDS011;51003;51.628;6.670;2023-05-29T06:09:36;8.53;;;2.20;;
64595;SDS011;51003;51.628;6.670;2023-05-29T06:12:02;7.97;;;2.37;;
64595;SDS011;51003;51.628;6.670;2023-05-29T06:14:28;9.77;;;2.77;;
64595;SDS011;51003;51.628;6.670;2023-05-29T06:16:53;8.63;;;2.77;;
64595;SDS011;51003;51.628;6.670;2023-05-29T06:19:19;12.23;;;2.50;;
64595;SDS011;51003;51.628;6.670;2023-05-29T06:21:45;7.57;;;2.17;;
64595;SDS011;51003;51.628;6.670;2023-05-29T06:24:11;9.30;;;2.60;;
64595;SDS011;51003;51.628;6.670;2023-05-29T06:26:37;9.77;;;2.20;;
64595;SDS011;51003;51.628;6.670;2023-05-29T06:29:03;9.40;;;2.27;;
64595;SDS011;51003;51.628;6.670;2023-05-29T06:31:28;10.50;;;2.17;;
64595;SDS011;51003;51.628;6.670;2023-05-29T06:33:54;9.77;;;2.43;;
64595;SDS011;51003;51.628;6.670;2023-05-29T06:36:19;5.70;;;2.03;;
64595;SDS011;51003;51.628;6.670;2023-05-29T06:38:46;9.97;;;2.30;;
64595;SDS011;51003;51.628;6.670;2023-05-29T06:41:12;8.10;;;2.33;;
64595;SDS011;51003;51.628;6.670;2023-05-29T06:43:38;6.60;;;2.20;;
64595;SDS011;51003;51.628;6.670;2023-05-29T06:46:04;7.97;;;2.60;;
64595;SDS011;51003;51.628;6.670;2023-05-29T06:48:33;6.10;;;2.27;;
64595;SDS011;51003;51.628;6.670;2023-05-29T06:50:59;8.07;;;2.20;;
64595;SDS011;51003;51.628;6.670;2023-05-29T06:53:26;5.57;;;2.30;;
64595;SDS011;51003;51.628;6.670;2023-05-29T06:55:52;11.63;;;2.23;;
64595;SDS011;51003;51.628;6.670;2023-05-29T06:58:17;10.87;;;2.10;;
64595;SDS011;51003;51.628;6.670;2023-05-29T07:00:43;9.57;;;2.73;;
64595;SDS011;51003;51.628;6.670;2023-05-29T07:03:09;6.50;;;1.73;;
64595;SDS011;51003;51.628;6.670;2023-05-29T07:05:34;15.37;;;2.20;;
64595;SDS011;51003;51.628;6.670;2023-05-29T07:08:00;9.63;;;2.17;;
64595;SDS011;51003;51.628;6.670;2023-05-29T07:10:25;5.57;;;2.23;;
64595;SDS011;51003;51.628;6.670;2023-05-29T07:12:51;8.10;;;2.43;;
64595;SDS011;51003;51.628;6.670;2023-05-29T07:15:17;5.67;;;2.37;;
64595;SDS011;51003;51.628;6.670;2023-05-29T07:17:43;10.90;;;2.43;;
64595;SDS011;51003;51.628;6.670;2023-05-29T07:20:09;7.60;;;2.20;;
64595;SDS011;51003;51.628;6.670;2023-05-29T07:22:35;9.83;;;2.50;;
64595;SDS011;51003;51.628;6.670;2023-05-29T07:25:01;6.93;;;2.20;;
64595;SDS011;51003;51.628;6.670;2023-05-29T07:27:27;10.30;;;2.60;;
64595;SDS011;51003;51.628;6.670;2023-05-29T07:29:53;6.80;;;2.57;;
64595;SDS011;51003;51.628;6.670;2023-05-29T07:32:19;8.67;;;2.50;;
64595;SDS011;51003;51.628;6.670;2023-05-29T07:34:44;5.73;;;2.43;;
64595;SDS011;51003;51.628;6.670;2023-05-29T07:37:10;8.10;;;2.37;;
64595;SDS011;51003;51.628;6.670;2023-05-29T07:39:36;7.47;;;2.40;;
64595;SDS011;51003;51.628;6.670;2023-05-29T07:42:02;6.47;;;2.10;;
64595;SDS011;51003;51.628;6.670;2023-05-29T07:44:30;7.70;;;2.33;;
64595;SDS011;51003;51.628;6.670;2023-05-29T07:46:56;6.60;;;2.67;;
64595;SDS011;51003;51.628;6.670;2023-05-29T07:49:22;5.70;;;2.30;;
64595;SDS011;51003;51.628;6.670;2023-05-29T07:51:48;8.27;;;2.33;;
64595;SDS011;51003;51.628;6.670;2023-05-29T07:54:13;7.00;;;2.47;;
64595;SDS011;51003;51.628;6.670;2023-05-29T07:56:43;6.07;;;2.33;;
64595;SDS011;51003;51.628;6.670;2023-05-29T07:59:08;7.13;;;2.77;;
64595;SDS011;51003;51.628;6.670;2023-05-29T08:01:34;8.90;;;2.23;;
64595;SDS011;51003;51.628;6.670;2023-05-29T08:03:59;7.03;;;2.23;;
64595;SDS011;51003;51.628;6.670;2023-05-29T08:06:25;9.13;;;2.67;;
64595;SDS011;51003;51.628;6.670;2023-05-29T08:08:51;9.77;;;2.23;;
64595;SDS011;51003;51.628;6.670;2023-05-29T08:11:17;4.90;;;2.40;;
64595;SDS011;51003;51.628;6.670;2023-05-29T08:13:43;10.23;;;2.70;;
64595;SDS011;51003;51.628;6.670;2023-05-29T08:16:09;6.77;;;2.20;;
64595;SDS011;51003;51.628;6.670;2023-05-29T08:18:35;5.30;;;2.23;;
64595;SDS011;51003;51.628;6.670;2023-05-29T08:21:01;5.80;;;1.93;;
64595;SDS011;51003;51.628;6.670;2023-05-29T08:23:27;6.90;;;2.57;;
64595;SDS011;51003;51.628;6.670;2023-05-29T08:25:52;5.10;;;2.47;;
64595;SDS011;51003;51.628;6.670;2023-05-29T08:28:18;12.60;;;2.93;;
64595;SDS011;51003;51.628;6.670;2023-05-29T08:30:43;8.70;;;2.40;;
64595;SDS011;51003;51.628;6.670;2023-05-29T08:33:09;7.70;;;2.37;;
64595;SDS011;51003;51.628;6.670;2023-05-29T08:35:34;5.00;;;2.60;;
64595;SDS011;51003;51.628;6.670;2023-05-29T08:38:01;4.60;;;2.53;;
64595;SDS011;51003;51.628;6.670;2023-05-29T08:40:27;6.87;;;2.10;;
64595;SDS011;51003;51.628;6.670;2023-05-29T08:42:59;4.70;;;2.30;;
64595;SDS011;51003;51.628;6.670;2023-05-29T08:45:28;9.07;;;2.57;;
64595;SDS011;51003;51.628;6.670;2023-05-29T08:47:54;8.90;;;2.70;;
64595;SDS011;51003;51.628;6.670;2023-05-29T08:50:20;6.77;;;2.63;;
64595;SDS011;51003;51.628;6.670;2023-05-29T08:52:46;6.70;;;2.27;;
64595;SDS011;51003;51.628;6.670;2023-05-29T08:55:12;4.60;;;2.73;;
64595;SDS011;51003;51.628;6.670;2023-05-29T08:57:38;7.43;;;2.53;;
64595;SDS011;51003;51.628;6.670;2023-05-29T09:00:05;5.00;;;2.43;;
64595;SDS011;51003;51.628;6.670;2023-05-29T09:02:34;7.50;;;2.53;;
64595;SDS011;51003;51.628;6.670;2023-05-29T09:05:02;8.13;;;2.53;;
64595;SDS011;51003;51.628;6.670;2023-05-29T09:07:28;3.70;;;2.20;;
64595;SDS011;51003;51.628;6.670;2023-05-29T09:09:55;6.77;;;2.60;;
64595;SDS011;51003;51.628;6.670;2023-05-29T09:12:21;5.80;;;2.70;;
64595;SDS011;51003;51.628;6.670;2023-05-29T09:14:46;5.60;;;2.27;;
64595;SDS011;51003;51.628;6.670;2023-05-29T09:17:13;5.23;;;2.33;;
64595;SDS011;51003;51.628;6.670;2023-05-29T09:19:40;3.30;;;2.43;;
64595;SDS011;51003;51.628;6.670;2023-05-29T09:22:11;2.90;;;2.03;;
64595;SDS011;51003;51.628;6.670;2023-05-29T09:24:41;6.50;;;2.67;;
64595;SDS011;51003;51.628;6.670;2023-05-29T09:27:07;5.37;;;2.27;;
64595;SDS011;51003;51.628;6.670;2023-05-29T09:29:37;6.00;;;2.73;;
64595;SDS011;51003;51.628;6.670;2023-05-29T09:32:03;8.00;;;3.13;;
64595;SDS011;51003;51.628;6.670;2023-05-29T09:34:33;6.30;;;2.13;;
64595;SDS011;51003;51.628;6.670;2023-05-29T09:37:02;8.53;;;2.60;;
64595;SDS011;51003;51.628;6.670;2023-05-29T09:42:07;5.03;;;2.37;;
64595;SDS011;51003;51.628;6.670;2023-05-29T09:44:32;7.00;;;2.73;;
64595;SDS011;51003;51.628;6.670;2023-05-29T09:46:59;7.10;;;2.33;;
64595;SDS011;51003;51.628;6.670;2023-05-29T09:49:25;4.70;;;2.00;;
64595;SDS011;51003;51.628;6.670;2023-05-29T09:51:53;3.47;;;2.03;;
64595;SDS011;51003;51.628;6.670;2023-05-29T09:54:19;6.50;;;2.37;;
64595;SDS011;51003;51.628;6.670;2023-05-29T09:56:45;7.70;;;2.77;;
64595;SDS011;51003;51.628;6.670;2023-05-29T09:59:11;4.10;;;2.40;;
64595;SDS011;51003;51.628;6.670;2023-05-29T10:01:41;4.33;;;2.40;;
64595;SDS011;51003;51.628;6.670;2023-05-29T10:04:09;4.90;;;2.23;;
64595;SDS011;51003;51.628;6.670;2023-05-29T10:06:38;6.60;;;2.57;;
64595;SDS011;51003;51.628;6.670;2023-05-29T10:09:08;6.60;;;2.10;;
64595;SDS011;51003;51.628;6.670;2023-05-29T10:11:37;4.40;;;2.13;;
64595;SDS011;51003;51.628;6.670;2023-05-29T10:14:06;3.07;;;2.30;;
64595;SDS011;51003;51.628;6.670;2023-05-29T10:16:35;6.57;;;2.53;;
64595;SDS011;51003;51.628;6.670;2023-05-29T10:19:06;4.43;;;2.50;;
64595;SDS011;51003;51.628;6.670;2023-05-29T10:21:34;3.33;;;2.20;;
64595;SDS011;51003;51.628;6.670;2023-05-29T10:24:02;3.70;;;2.53;;
64595;SDS011;51003;51.628;6.670;2023-05-29T10:26:31;7.57;;;2.40;;
64595;SDS011;51003;51.628;6.670;2023-05-29T10:32:05;4.60;;;2.50;;
64595;SDS011;51003;51.628;6.670;2023-05-29T10:40:07;3.97;;;2.40;;
64595;SDS011;51003;51.628;6.670;2023-05-29T10:42:43;4.67;;;2.40;;
64595;SDS011;51003;51.628;6.670;2023-05-29T10:47:53;2.87;;;2.17;;
64595;SDS011;51003;51.628;6.670;2023-05-29T10:53:16;4.67;;;2.57;;
64595;SDS011;51003;51.628;6.670;2023-05-29T10:55:42;5.70;;;2.40;;
64595;SDS011;51003;51.628;6.670;2023-05-29T10:58:18;2.70;;;2.37;;
64595;SDS011;51003;51.628;6.670;2023-05-29T11:00:44;4.77;;;2.30;;
64595;SDS011;51003;51.628;6.670;2023-05-29T11:03:14;4.83;;;2.13;;
64595;SDS011;51003;51.628;6.670;2023-05-29T11:08:42;3.70;;;2.53;;
64595;SDS011;51003;51.628;6.670;2023-05-29T11:11:12;4.87;;;2.67;;
64595;SDS011;51003;51.628;6.670;2023-05-29T11:13:38;3.87;;;2.47;;
64595;SDS011;51003;51.628;6.670;2023-05-29T11:18:50;2.47;;;2.17;;
64595;SDS011;51003;51.628;6.670;2023-05-29T11:21:24;3.97;;;2.30;;
64595;SDS011;51003;51.628;6.670;2023-05-29T11:24:06;4.07;;;2.10;;
64595;SDS011;51003;51.628;6.670;2023-05-29T11:26:32;4.40;;;2.20;;
64595;SDS011;51003;51.628;6.670;2023-05-29T11:28:58;10.23;;;2.80;;
64595;SDS011;51003;51.628;6.670;2023-05-29T11:31:32;4.93;;;2.13;;
64595;SDS011;51003;51.628;6.670;2023-05-29T11:33:59;2.30;;;2.10;;
64595;SDS011;51003;51.628;6.670;2023-05-29T11:36:28;5.27;;;2.40;;
64595;SDS011;51003;51.628;6.670;2023-05-29T11:38:56;5.73;;;2.83;;
64595;SDS011;51003;51.628;6.670;2023-05-29T11:41:22;2.27;;;2.07;;
64595;SDS011;51003;51.628;6.670;2023-05-29T11:43:58;2.40;;;2.07;;
64595;SDS011;51003;51.628;6.670;2023-05-29T11:46:23;4.50;;;2.47;;
64595;SDS011;51003;51.628;6.670;2023-05-29T11:48:51;3.50;;;2.20;;
64595;SDS011;51003;51.628;6.670;2023-05-29T11:51:17;4.13;;;2.20;;
64595;SDS011;51003;51.628;6.670;2023-05-29T11:53:43;4.03;;;2.57;;
64595;SDS011;51003;51.628;6.670;2023-05-29T11:56:09;4.03;;;2.20;;
64595;SDS011;51003;51.628;6.670;2023-05-29T11:58:38;3.97;;;2.70;;
64595;SDS011;51003;51.628;6.670;2023-05-29T12:01:05;5.27;;;2.50;;
64595;SDS011;51003;51.628;6.670;2023-05-29T12:03:31;3.80;;;2.30;;
64595;SDS011;51003;51.628;6.670;2023-05-29T12:06:03;7.67;;;2.50;;
64595;SDS011;51003;51.628;6.670;2023-05-29T12:08:31;4.77;;;2.20;;
64595;SDS011;51003;51.628;6.670;2023-05-29T12:10:57;3.77;;;2.43;;
64595;SDS011;51003;51.628;6.670;2023-05-29T12:13:22;4.03;;;2.20;;
64595;SDS011;51003;51.628;6.670;2023-05-29T12:15:49;7.77;;;2.73;;
64595;SDS011;51003;51.628;6.670;2023-05-29T12:18:17;6.23;;;2.40;;
64595;SDS011;51003;51.628;6.670;2023-05-29T12:20:43;4.97;;;2.40;;
64595;SDS011;51003;51.628;6.670;2023-05-29T12:23:08;4.03;;;2.50;;
64595;SDS011;51003;51.628;6.670;2023-05-29T12:25:34;3.67;;;2.10;;
64595;SDS011;51003;51.628;6.670;2023-05-29T12:28:03;3.90;;;2.50;;
64595;SDS011;51003;51.628;6.670;2023-05-29T12:30:29;3.60;;;2.33;;
64595;SDS011;51003;51.628;6.670;2023-05-29T12:32:55;4.73;;;2.37;;
64595;SDS011;51003;51.628;6.670;2023-05-29T12:42:46;4.23;;;2.30;;
64595;SDS011;51003;51.628;6.670;2023-05-29T12:45:12;3.03;;;2.30;;
64595;SDS011;51003;51.628;6.670;2023-05-29T12:47:44;4.23;;;2.47;;
64595;SDS011;51003;51.628;6.670;2023-05-29T12:52:52;5.30;;;1.97;;
64595;SDS011;51003;51.628;6.670;2023-05-29T12:55:21;7.27;;;2.40;;
64595;SDS011;51003;51.628;6.670;2023-05-29T12:57:46;3.60;;;2.20;;
64595;SDS011;51003;51.628;6.670;2023-05-29T13:00:13;5.93;;;2.53;;
64595;SDS011;51003;51.628;6.670;2023-05-29T13:02:38;8.13;;;2.30;;
64595;SDS011;51003;51.628;6.670;2023-05-29T13:05:04;6.30;;;2.27;;
64595;SDS011;51003;51.628;6.670;2023-05-29T13:07:31;4.23;;;2.10;;
64595;SDS011;51003;51.628;6.670;2023-05-29T13:09:57;7.43;;;2.63;;
64595;SDS011;51003;51.628;6.670;2023-05-29T13:12:22;6.03;;;2.60;;
64595;SDS011;51003;51.628;6.670;2023-05-29T13:14:48;4.10;;;2.17;;
64595;SDS011;51003;51.628;6.670;2023-05-29T13:17:15;5.50;;;2.33;;
64595;SDS011;51003;51.628;6.670;2023-05-29T13:19:44;8.13;;;2.70;;
64595;SDS011;51003;51.628;6.670;2023-05-29T13:22:10;4.43;;;2.13;;
64595;SDS011;51003;51.628;6.670;2023-05-29T13:24:36;3.63;;;2.40;;
64595;SDS011;51003;51.628;6.670;2023-05-29T13:27:01;5.83;;;2.50;;
64595;SDS011;51003;51.628;6.670;2023-05-29T13:29:27;2.27;;;2.07;;
64595;SDS011;51003;51.628;6.670;2023-05-29T13:31:53;4.70;;;2.27;;
64595;SDS011;51003;51.628;6.670;2023-05-29T13:34:18;3.50;;;2.30;;
64595;SDS011;51003;51.628;6.670;2023-05-29T13:36:44;4.77;;;2.27;;
64595;SDS011;51003;51.628;6.670;2023-05-29T13:39:10;5.40;;;2.77;;
64595;SDS011;51003;51.628;6.670;2023-05-29T13:41:35;4.03;;;2.10;;
64595;SDS011;51003;51.628;6.670;2023-05-29T13:44:01;6.27;;;2.60;;
64595;SDS011;51003;51.628;6.670;2023-05-29T13:46:26;5.47;;;2.67;;
64595;SDS011;51003;51.628;6.670;2023-05-29T13:48:52;5.43;;;2.63;;
64595;SDS011;51003;51.628;6.670;2023-05-29T13:51:17;5.50;;;2.20;;
64595;SDS011;51003;51.628;6.670;2023-05-29T13:53:43;3.80;;;2.30;;
64595;SDS011;51003;51.628;6.670;2023-05-29T13:56:09;4.07;;;2.33;;
64595;SDS011;51003;51.628;6.670;2023-05-29T13:58:34;5.60;;;2.67;;
64595;SDS011;51003;51.628;6.670;2023-05-29T14:01:00;4.10;;;2.17;;
64595;SDS011;51003;51.628;6.670;2023-05-29T14:03:26;3.50;;;2.40;;
64595;SDS011;51003;51.628;6.670;2023-05-29T14:05:53;4.60;;;2.53;;
64595;SDS011;51003;51.628;6.670;2023-05-29T14:08:19;3.83;;;2.50;;
64595;SDS011;51003;51.628;6.670;2023-05-29T14:10:45;3.87;;;2.40;;
64595;SDS011;51003;51.628;6.670;2023-05-29T14:13:10;4.00;;;2.50;;
64595;SDS011;51003;51.628;6.670;2023-05-29T14:15:36;3.07;;;2.10;;
64595;SDS011;51003;51.628;6.670;2023-05-29T14:18:02;3.43;;;2.57;;
64595;SDS011;51003;51.628;6.670;2023-05-29T14:20:28;3.83;;;2.10;;
64595;SDS011;51003;51.628;6.670;2023-05-29T14:22:54;5.03;;;2.10;;
64595;SDS011;51003;51.628;6.670;2023-05-29T14:25:19;3.27;;;2.50;;
64595;SDS011;51003;51.628;6.670;2023-05-29T14:27:45;2.70;;;2.30;;
64595;SDS011;51003;51.628;6.670;2023-05-29T14:30:10;4.40;;;2.37;;
64595;SDS011;51003;51.628;6.670;2023-05-29T14:32:37;3.73;;;2.63;;
64595;SDS011;51003;51.628;6.670;2023-05-29T14:35:02;4.23;;;2.30;;
64595;SDS011;51003;51.628;6.670;2023-05-29T14:37:28;6.10;;;2.50;;
64595;SDS011;51003;51.628;6.670;2023-05-29T14:39:54;5.53;;;2.40;;
64595;SDS011;51003;51.628;6.670;2023-05-29T14:42:19;5.10;;;2.80;;
64595;SDS011;51003;51.628;6.670;2023-05-29T14:44:45;3.30;;;2.23;;
64595;SDS011;51003;51.628;6.670;2023-05-29T14:47:11;3.80;;;2.50;;
64595;SDS011;51003;51.628;6.670;2023-05-29T14:49:37;3.43;;;2.53;;
64595;SDS011;51003;51.628;6.670;2023-05-29T14:52:03;4.03;;;2.97;;
64595;SDS011;51003;51.628;6.670;2023-05-29T14:54:29;3.53;;;2.60;;
64595;SDS011;51003;51.628;6.670;2023-05-29T14:56:55;3.57;;;2.20;;
64595;SDS011;51003;51.628;6.670;2023-05-29T14:59:22;3.00;;;2.30;;
64595;SDS011;51003;51.628;6.670;2023-05-29T15:01:48;4.37;;;2.30;;
64595;SDS011;51003;51.628;6.670;2023-05-29T15:04:13;4.13;;;2.60;;
64595;SDS011;51003;51.628;6.670;2023-05-29T15:06:39;2.93;;;2.20;;
64595;SDS011;51003;51.628;6.670;2023-05-29T15:09:05;4.07;;;2.43;;
64595;SDS011;51003;51.628;6.670;2023-05-29T15:11:31;5.60;;;2.47;;
64595;SDS011;51003;51.628;6.670;2023-05-29T15:13:57;5.20;;;2.30;;
64595;SDS011;51003;51.628;6.670;2023-05-29T15:16:22;3.57;;;2.50;;
64595;SDS011;51003;51.628;6.670;2023-05-29T15:18:48;7.47;;;2.20;;
64595;SDS011;51003;51.628;6.670;2023-05-29T15:21:14;4.10;;;2.53;;
64595;SDS011;51003;51.628;6.670;2023-05-29T15:23:39;4.33;;;2.50;;
64595;SDS011;51003;51.628;6.670;2023-05-29T15:26:08;4.90;;;2.50;;
64595;SDS011;51003;51.628;6.670;2023-05-29T15:28:34;6.40;;;2.70;;
64595;SDS011;51003;51.628;6.670;2023-05-29T15:30:59;2.70;;;1.90;;
64595;SDS011;51003;51.628;6.670;2023-05-29T15:33:25;6.10;;;2.60;;
64595;SDS011;51003;51.628;6.670;2023-05-29T15:35:51;2.30;;;2.10;;
64595;SDS011;51003;51.628;6.670;2023-05-29T15:38:16;3.73;;;2.70;;
64595;SDS011;51003;51.628;6.670;2023-05-29T15:40:42;4.50;;;2.87;;
64595;SDS011;51003;51.628;6.670;2023-05-29T15:43:08;2.63;;;2.33;;
64595;SDS011;51003;51.628;6.670;2023-05-29T15:45:34;3.83;;;2.60;;
64595;SDS011;51003;51.628;6.670;2023-05-29T15:48:00;3.13;;;2.73;;
64595;SDS011;51003;51.628;6.670;2023-05-29T15:50:25;4.73;;;2.90;;